createdAt,value
2022-12-12T00:01:19.301Z,100894.09
2022-12-12T00:04:00.656Z,100905.22
2022-12-12T00:06:41.553Z,100908.66
2022-12-12T00:09:21.371Z,100923.31
2022-12-12T00:12:01.187Z,100925.06
2022-12-12T00:14:42.946Z,100935.44
2022-12-12T00:17:25.975Z,100938.81
2022-12-12T00:20:09.403Z,100935.38
2022-12-12T00:22:49.966Z,100941.38
2022-12-12T00:25:29.801Z,100949.16
2022-12-12T00:28:09.585Z,100948.28
2022-12-12T00:30:49.622Z,100955.22
2022-12-12T00:33:30.801Z,100958.59
2022-12-12T00:36:12.611Z,100962.97
2022-12-12T00:38:53.804Z,100967.28
2022-12-12T00:41:35.012Z,100966.44
2022-12-12T00:44:14.834Z,100961.25
2022-12-12T00:46:54.627Z,100959.56
2022-12-12T00:49:34.467Z,100958.69
2022-12-12T00:52:14.359Z,100956.97
2022-12-12T00:54:55.645Z,100954.47
2022-12-12T00:57:35.695Z,100946.72
2022-12-12T01:00:19.646Z,100959.69
2022-12-12T01:03:00.043Z,100950.25
2022-12-12T01:05:41.417Z,100953.69
2022-12-12T01:08:22.740Z,100952.00
2022-12-12T01:11:02.487Z,100945.97
2022-12-12T01:13:44.533Z,100944.34
2022-12-12T01:16:25.681Z,100939.19
2022-12-12T01:19:06.760Z,100928.16
2022-12-12T01:21:46.565Z,100935.94
2022-12-12T01:24:26.497Z,100928.16
2022-12-12T01:27:26.970Z,100913.50
2022-12-12T01:30:07.797Z,100922.13
2022-12-12T01:32:48.155Z,100917.84
2022-12-12T01:35:28.089Z,100917.88
2022-12-12T01:38:09.489Z,100914.44
2022-12-12T01:40:50.855Z,100908.41
2022-12-12T01:43:32.587Z,100904.13
2022-12-12T01:46:33.593Z,100905.09
2022-12-12T01:49:21.827Z,100898.19
2022-12-12T01:52:03.308Z,100895.69
2022-12-12T01:54:43.635Z,100890.59
2022-12-12T01:57:26.917Z,100887.22
2022-12-12T02:00:09.800Z,100882.91
2022-12-12T02:02:52.567Z,100880.34
2022-12-12T02:05:34.677Z,100885.56
2022-12-12T02:08:15.271Z,100883.88
2022-12-12T02:10:57.044Z,100872.72
2022-12-12T02:13:38.050Z,100875.31
2022-12-12T02:16:22.003Z,100879.66
2022-12-12T02:19:04.324Z,100867.66
2022-12-12T02:21:45.920Z,100865.09
2022-12-12T02:24:40.419Z,100860.00
2022-12-12T02:27:39.736Z,100856.59
2022-12-12T02:30:22.850Z,100860.13
2022-12-12T02:33:07.161Z,100859.28
2022-12-12T02:35:55.115Z,100861.00
2022-12-12T02:38:38.416Z,100854.19
2022-12-12T02:41:19.163Z,100842.22
2022-12-12T02:44:06.519Z,100847.38
2022-12-12T02:46:52.880Z,100843.19
2022-12-12T02:49:36.545Z,100837.22
2022-12-12T02:52:18.965Z,100834.69
2022-12-12T02:54:59.954Z,100837.25
2022-12-12T02:57:42.053Z,100839.78
2022-12-12T03:00:24.775Z,100826.97
2022-12-12T03:03:33.505Z,100838.16
2022-12-12T03:06:40.641Z,100831.34
2022-12-12T03:09:24.662Z,100826.25
2022-12-12T03:12:06.002Z,100825.41
2022-12-12T03:14:50.757Z,100819.38
2022-12-12T03:17:32.832Z,100823.72
2022-12-12T03:20:14.110Z,100830.56
2022-12-12T03:22:57.455Z,100822.03
2022-12-12T03:25:39.522Z,100820.41
2022-12-12T03:28:24.309Z,100819.63
2022-12-12T03:31:06.941Z,100812.78
2022-12-12T03:33:47.306Z,100809.34
2022-12-12T03:36:28.723Z,100800.75
2022-12-12T03:39:10.172Z,100804.22
2022-12-12T03:41:51.730Z,100798.28
2022-12-12T03:44:39.743Z,100805.06
2022-12-12T03:47:24.604Z,100803.41
2022-12-12T03:50:05.684Z,100800.91
2022-12-12T03:52:46.736Z,100800.91
2022-12-12T03:55:30.642Z,100796.72
2022-12-12T03:58:14.035Z,100789.03
2022-12-12T04:00:55.652Z,100795.09
2022-12-12T04:03:40.126Z,100799.38
2022-12-12T04:06:28.068Z,100793.34
2022-12-12T04:09:27.249Z,100795.97
2022-12-12T04:12:27.150Z,100790.84
2022-12-12T04:15:16.243Z,100790.84
2022-12-12T04:17:59.347Z,100795.19
2022-12-12T04:21:01.507Z,100793.50
2022-12-12T04:23:49.803Z,100794.38
2022-12-12T04:26:42.768Z,100796.97
2022-12-12T04:29:27.154Z,100800.44
2022-12-12T04:32:12.782Z,100813.44
2022-12-12T04:34:56.152Z,100821.19
2022-12-12T04:37:40.083Z,100834.09
2022-12-12T04:40:22.384Z,100834.09
2022-12-12T04:43:04.175Z,100853.00
2022-12-12T04:45:47.555Z,100848.69
2022-12-12T04:48:33.319Z,100852.13
2022-12-12T04:51:19.588Z,100858.22
2022-12-12T04:54:03.822Z,100858.22
2022-12-12T04:56:45.077Z,100860.78
2022-12-12T04:59:24.883Z,100868.56
2022-12-12T05:02:06.301Z,100866.00
2022-12-12T05:04:58.688Z,100864.31
2022-12-12T05:07:40.615Z,100862.69
2022-12-12T05:10:21.029Z,100870.38
2022-12-12T05:13:02.153Z,100866.09
2022-12-12T05:15:44.919Z,100869.53
2022-12-12T05:18:25.022Z,100867.03
2022-12-12T05:21:06.535Z,100869.59
2022-12-12T05:23:47.770Z,100879.06
2022-12-12T05:26:29.491Z,100873.97
2022-12-12T05:29:12.497Z,100871.38
2022-12-12T05:31:53.499Z,100871.41
2022-12-12T05:34:33.337Z,100861.94
2022-12-12T05:37:14.130Z,100867.09
2022-12-12T05:39:54.515Z,100862.00
2022-12-12T05:42:34.360Z,100859.50
2022-12-12T05:45:16.248Z,100863.78
2022-12-12T05:47:57.758Z,100856.06
2022-12-12T05:50:40.553Z,100861.28
2022-12-12T05:53:21.576Z,100859.53
2022-12-12T05:56:01.404Z,100855.22
2022-12-12T05:58:43.478Z,100856.06
2022-12-12T06:01:26.197Z,100857.81
2022-12-12T06:04:07.273Z,100864.69
2022-12-12T06:06:50.592Z,100857.81
2022-12-12T06:09:31.965Z,100863.03
2022-12-12T06:12:13.124Z,100872.44
2022-12-12T06:14:54.411Z,100877.59
2022-12-12T06:17:34.430Z,100877.59
2022-12-12T06:20:15.643Z,100884.53
2022-12-12T06:22:55.469Z,100887.13
2022-12-12T06:25:37.237Z,100885.44
2022-12-12T06:28:18.290Z,100891.47
2022-12-12T06:31:00.207Z,100892.38
2022-12-12T06:33:43.457Z,100890.66
2022-12-12T06:36:26.065Z,100891.53
2022-12-12T06:39:07.270Z,100890.72
2022-12-12T06:41:48.461Z,100884.75
2022-12-12T06:44:28.391Z,100885.63
2022-12-12T06:47:11.681Z,100886.47
2022-12-12T06:49:54.696Z,100889.09
2022-12-12T06:52:35.693Z,100894.28
2022-12-12T06:55:15.702Z,100893.38
2022-12-12T06:57:56.936Z,100891.69
2022-12-12T07:00:36.733Z,100894.31
2022-12-12T07:03:18.592Z,100896.06
2022-12-12T07:05:59.738Z,100893.50
2022-12-12T07:08:41.512Z,100898.72
2022-12-12T07:11:25.060Z,100897.03
2022-12-12T07:14:05.657Z,100897.88
2022-12-12T07:16:46.827Z,100895.25
2022-12-12T07:19:28.619Z,100902.13
2022-12-12T07:22:10.689Z,100903.06
2022-12-12T07:24:51.490Z,100897.00
2022-12-12T07:27:32.415Z,100899.53
2022-12-12T07:30:13.393Z,100899.47
2022-12-12T07:32:53.638Z,100893.47
2022-12-12T07:35:33.438Z,100898.59
2022-12-12T07:38:13.304Z,100899.41
2022-12-12T07:40:53.094Z,100891.72
2022-12-12T07:43:34.010Z,100905.44
2022-12-12T07:46:16.393Z,100899.47
2022-12-12T07:48:57.353Z,100904.59
2022-12-12T07:51:41.894Z,100912.31
2022-12-12T07:54:26.512Z,100914.00
2022-12-12T07:57:08.307Z,100915.66
2022-12-12T07:59:49.397Z,100913.13
2022-12-12T08:02:30.723Z,100916.56
2022-12-12T08:05:11.078Z,100924.25
2022-12-12T08:07:51.965Z,100927.63
2022-12-12T08:10:33.438Z,100931.00
2022-12-12T08:13:16.736Z,100930.91
2022-12-12T08:15:57.966Z,100934.28
2022-12-12T08:18:39.169Z,100946.28
2022-12-12T08:21:25.101Z,100949.59
2022-12-12T08:24:09.660Z,100959.91
2022-12-12T08:26:50.070Z,100958.94
2022-12-12T08:29:31.194Z,100975.19
2022-12-12T08:32:10.982Z,100991.44
2022-12-12T08:34:50.764Z,100997.38
2022-12-12T08:37:30.883Z,101013.56
2022-12-12T08:40:12.898Z,101020.34
2022-12-12T08:42:53.463Z,101037.44
2022-12-12T08:45:35.009Z,101050.25
2022-12-12T08:48:16.215Z,101066.47
2022-12-12T08:50:56.051Z,101075.00
2022-12-12T08:53:35.924Z,101092.16
2022-12-12T08:56:15.805Z,101106.66
2022-12-12T08:58:57.081Z,101124.59
2022-12-12T09:01:39.038Z,101149.50
2022-12-12T09:04:19.860Z,101157.16
2022-12-12T09:07:03.583Z,101169.09
2022-12-12T09:09:47.487Z,101184.53
2022-12-12T09:12:29.434Z,101200.78
2022-12-12T09:15:11.195Z,101212.69
2022-12-12T09:17:51.752Z,101226.41
2022-12-12T09:20:31.544Z,101240.94
2022-12-12T09:23:11.343Z,101256.28
2022-12-12T09:25:53.191Z,101263.09
2022-12-12T09:28:34.227Z,101274.13
2022-12-12T09:31:15.579Z,101286.00
2022-12-12T09:33:56.972Z,101297.16
2022-12-12T09:36:36.889Z,101312.50
2022-12-12T09:39:20.169Z,101320.16
2022-12-12T09:42:10.922Z,101324.31
2022-12-12T09:44:52.254Z,101336.22
2022-12-12T09:47:35.493Z,101335.25
2022-12-12T09:50:18.322Z,101342.84
2022-12-12T09:53:00.045Z,101349.66
2022-12-12T09:55:41.792Z,101353.78
2022-12-12T09:58:24.081Z,101361.38
2022-12-12T10:01:12.965Z,101362.91
2022-12-12T10:03:57.755Z,101362.78
2022-12-12T10:06:39.730Z,101370.34
2022-12-12T10:09:25.947Z,101371.13
2022-12-12T10:12:08.644Z,101376.91
2022-12-12T10:14:51.497Z,101389.53
2022-12-12T10:17:33.833Z,101398.00
2022-12-12T10:20:15.868Z,101408.19
2022-12-12T10:22:56.770Z,101413.97
2022-12-12T10:25:40.856Z,101425.81
2022-12-12T10:28:22.502Z,101422.25
2022-12-12T10:31:16.081Z,101422.19
2022-12-12T10:34:01.793Z,101432.38
2022-12-12T10:36:55.313Z,101431.47
2022-12-12T10:39:40.367Z,101429.53
2022-12-12T10:42:22.827Z,101428.41
2022-12-12T10:45:35.937Z,101434.97
2022-12-12T10:48:15.739Z,101429.69
2022-12-12T10:50:58.812Z,101428.69
2022-12-12T10:53:40.550Z,101425.84
2022-12-12T10:56:24.096Z,101416.22
2022-12-12T10:59:06.670Z,101407.41
2022-12-12T11:04:49.789Z,101403.78
2022-12-12T11:07:31.598Z,101412.38
2022-12-12T11:10:29.217Z,101408.72
2022-12-12T11:13:16.867Z,101406.94
2022-12-12T11:15:57.942Z,101411.91
2022-12-12T11:18:39.159Z,101406.53
2022-12-12T11:21:21.027Z,101403.66
2022-12-12T11:24:04.496Z,101404.13
2022-12-12T11:26:45.506Z,101404.78
2022-12-12T11:29:31.595Z,101403.59
2022-12-12T11:32:14.020Z,101398.06
2022-12-12T11:34:54.425Z,101411.19
2022-12-12T11:37:39.425Z,101402.41
2022-12-12T11:40:22.935Z,101410.19
2022-12-12T11:43:08.658Z,101405.84
2022-12-12T11:45:59.846Z,101409.22
2022-12-12T11:48:43.922Z,101402.91
2022-12-12T11:51:32.401Z,101399.53
2022-12-12T11:54:14.036Z,101389.41
2022-12-12T11:56:55.978Z,101364.09
2022-12-12T11:59:41.432Z,101346.56
2022-12-12T12:02:35.258Z,101335.91
2022-12-12T12:05:18.746Z,101297.13
2022-12-12T12:08:05.619Z,101268.38
2022-12-12T12:10:51.333Z,101234.28
2022-12-12T12:13:37.301Z,101215.19
2022-12-12T12:16:19.800Z,101183.06
2022-12-12T12:19:07.713Z,101139.69
2022-12-12T12:21:52.203Z,101100.34
2022-12-12T12:24:36.724Z,101042.50
2022-12-12T12:27:19.027Z,101002.03
2022-12-12T12:30:18.506Z,100965.59
2022-12-12T12:33:09.971Z,100909.41
2022-12-12T12:35:53.631Z,100855.47
2022-12-12T12:38:40.797Z,100807.84
2022-12-12T12:41:26.016Z,100768.88
2022-12-12T12:44:09.679Z,100729.84
2022-12-12T12:46:57.537Z,100676.91
2022-12-12T12:49:40.653Z,100641.78
2022-12-12T12:52:22.639Z,100599.91
2022-12-12T12:55:03.115Z,100551.91
2022-12-12T12:57:45.369Z,100509.16
2022-12-12T13:00:26.557Z,100485.09
2022-12-12T13:03:08.816Z,100468.31
2022-12-12T13:05:51.264Z,100461.72
2022-12-12T13:08:32.676Z,100441.44
2022-12-12T13:11:13.394Z,100443.69
2022-12-12T13:13:55.714Z,100442.91
2022-12-12T13:16:35.855Z,100443.00
2022-12-12T13:19:16.302Z,100441.69
2022-12-12T13:21:57.827Z,100437.03
2022-12-12T13:24:42.391Z,100436.09
2022-12-12T13:27:23.810Z,100439.44
2022-12-12T13:30:06.057Z,100432.06
2022-12-12T13:33:01.473Z,100433.28
2022-12-12T13:35:45.784Z,100429.91
2022-12-12T13:38:27.507Z,100431.91
2022-12-12T13:41:08.404Z,100432.97
2022-12-12T13:43:49.437Z,100432.75
2022-12-12T13:46:35.612Z,100431.41
2022-12-12T13:49:18.141Z,100427.09
2022-12-12T13:52:11.729Z,100430.66
2022-12-12T13:54:52.959Z,100440.19
2022-12-12T13:57:34.151Z,100447.28
2022-12-12T14:00:19.543Z,100449.31
2022-12-12T14:03:07.542Z,100452.81
2022-12-12T14:05:48.111Z,100452.97
2022-12-12T14:08:32.686Z,100451.19
2022-12-12T14:11:20.855Z,100457.28
2022-12-12T14:14:20.853Z,100449.47
2022-12-12T14:17:02.035Z,100456.13
2022-12-12T14:19:41.910Z,100451.59
2022-12-12T14:22:28.084Z,100448.06
2022-12-12T14:25:11.294Z,100458.41
2022-12-12T14:28:13.758Z,100457.28
2022-12-12T14:30:57.222Z,100455.34
2022-12-12T14:34:03.752Z,100453.38
2022-12-12T14:37:08.301Z,100465.13
2022-12-12T14:40:05.363Z,100460.66
2022-12-12T14:43:19.289Z,100462.94
2022-12-12T14:46:00.004Z,100460.97
2022-12-12T14:48:42.810Z,100463.13
2022-12-12T14:51:29.250Z,100465.41
2022-12-12T14:54:14.830Z,100476.28
2022-12-12T14:56:56.369Z,100480.94
2022-12-12T14:59:37.822Z,100481.47
2022-12-12T15:02:19.792Z,100487.03
2022-12-12T15:05:04.893Z,100487.50
2022-12-12T15:07:46.611Z,100500.00
2022-12-12T15:10:29.079Z,100502.22
2022-12-12T15:13:16.614Z,100502.63
2022-12-12T15:15:57.261Z,100507.34
2022-12-12T15:18:38.620Z,100515.56
2022-12-12T15:21:18.695Z,100518.59
2022-12-12T15:24:01.855Z,100530.22
2022-12-12T15:26:45.097Z,100540.06
2022-12-12T15:29:26.555Z,100546.38
2022-12-12T15:32:08.139Z,100556.31
2022-12-12T15:34:49.253Z,100571.47
2022-12-12T15:37:30.679Z,100572.69
2022-12-12T15:40:19.490Z,100585.16
2022-12-12T15:43:01.047Z,100600.97
2022-12-12T15:45:43.159Z,100606.53
2022-12-12T15:48:23.811Z,100621.53
2022-12-12T15:51:05.634Z,100628.69
2022-12-12T15:53:48.856Z,100645.44
2022-12-12T15:56:29.738Z,100657.84
2022-12-12T15:59:23.954Z,100669.38
2022-12-12T16:02:18.781Z,100685.25
2022-12-12T16:05:00.550Z,100695.00
2022-12-12T16:07:42.677Z,100709.94
2022-12-12T16:10:24.767Z,100715.38
2022-12-12T16:13:06.913Z,100725.22
2022-12-12T16:15:50.196Z,100746.97
2022-12-12T16:18:31.152Z,100762.72
2022-12-12T16:21:10.946Z,100772.47
2022-12-12T16:23:52.703Z,100774.44
2022-12-12T16:26:33.735Z,100784.03
2022-12-12T16:29:15.162Z,100796.41
2022-12-12T16:31:56.031Z,100807.84
2022-12-12T16:34:38.348Z,100812.25
2022-12-12T16:37:19.398Z,100831.41
2022-12-12T16:39:57.242Z,100836.78
2022-12-12T16:42:37.489Z,100849.09
2022-12-12T16:45:18.973Z,100863.06
2022-12-12T16:47:58.702Z,100872.69
2022-12-12T16:50:41.986Z,100882.38
2022-12-12T16:53:23.028Z,100886.88
2022-12-12T16:56:03.330Z,100886.13
2022-12-12T16:58:46.054Z,100900.97
2022-12-12T17:01:30.082Z,100902.84
2022-12-12T17:04:13.775Z,100917.59
2022-12-12T17:06:54.979Z,100912.59
2022-12-12T17:09:36.265Z,100924.78
2022-12-12T17:12:37.134Z,100922.34
2022-12-12T17:15:18.107Z,100935.34
2022-12-12T17:17:58.206Z,100944.09
2022-12-12T17:20:39.906Z,100945.03
2022-12-12T17:23:27.417Z,100951.22
2022-12-12T17:26:11.474Z,100957.38
2022-12-12T17:28:51.756Z,100965.28
2022-12-12T17:31:31.600Z,100968.00
2022-12-12T17:34:12.938Z,100975.88
2022-12-12T17:36:52.694Z,100981.09
2022-12-12T17:39:30.606Z,100981.28
2022-12-12T17:42:10.712Z,100983.91
2022-12-12T17:44:50.562Z,100988.31
2022-12-12T17:47:31.973Z,100970.34
2022-12-12T17:50:12.052Z,100979.88
2022-12-12T17:52:53.159Z,100975.63
2022-12-12T17:55:53.272Z,100974.03
2022-12-12T17:58:56.093Z,100976.69
2022-12-12T18:01:37.452Z,100975.06
2022-12-12T18:04:21.855Z,100969.09
2022-12-12T18:07:07.607Z,100979.50
2022-12-12T18:09:48.005Z,100976.09
2022-12-12T18:12:29.444Z,100974.41
2022-12-12T18:15:10.412Z,100971.94
2022-12-12T18:17:50.802Z,100966.81
2022-12-12T18:20:32.142Z,100959.13
2022-12-12T18:23:13.447Z,100966.91
2022-12-12T18:25:51.373Z,100968.78
2022-12-12T18:28:31.596Z,100956.81
2022-12-12T18:31:12.806Z,100959.50
2022-12-12T18:33:54.652Z,100965.59
2022-12-12T18:36:37.673Z,100963.06
2022-12-12T18:39:18.760Z,100963.16
2022-12-12T18:42:00.280Z,100963.16
2022-12-12T18:44:41.481Z,100959.75
2022-12-12T18:47:21.330Z,100960.69
2022-12-12T18:50:01.080Z,100956.47
2022-12-12T18:52:40.954Z,100963.38
2022-12-12T18:55:25.878Z,100956.59
2022-12-12T18:58:06.893Z,100955.75
2022-12-12T19:00:46.677Z,100957.53
2022-12-12T19:03:24.648Z,100954.94
2022-12-12T19:06:06.289Z,100959.31
2022-12-12T19:08:48.623Z,100965.34
2022-12-12T19:11:29.149Z,100955.13
2022-12-12T19:14:09.529Z,100955.16
2022-12-12T19:16:50.363Z,100963.81
2022-12-12T19:19:30.166Z,100952.69
2022-12-12T19:22:39.785Z,100959.59
2022-12-12T19:25:12.592Z,100964.84
2022-12-12T19:27:53.593Z,100955.38
2022-12-12T19:30:38.320Z,100955.44
2022-12-12T19:33:19.622Z,100956.34
2022-12-12T19:35:59.365Z,100954.66
2022-12-12T19:38:39.250Z,100948.72
2022-12-12T19:41:19.707Z,100952.13
2022-12-12T19:44:01.424Z,100947.84
2022-12-12T19:46:42.894Z,100959.09
2022-12-12T19:49:25.236Z,100956.56
2022-12-12T19:52:12.172Z,100950.66
2022-12-12T19:54:54.042Z,100955.84
2022-12-12T19:57:33.837Z,100943.88
2022-12-12T20:00:16.174Z,100943.94
2022-12-12T20:02:56.690Z,100939.66
2022-12-12T20:05:36.476Z,100937.06
2022-12-12T20:08:16.921Z,100942.28
2022-12-12T20:10:57.663Z,100939.72
2022-12-12T20:13:37.650Z,100935.53
2022-12-12T20:16:19.703Z,100933.00
2022-12-12T20:19:00.473Z,100923.59
2022-12-12T20:24:44.975Z,100915.94
2022-12-12T20:27:25.315Z,100916.84
2022-12-12T20:30:07.840Z,100915.16
2022-12-12T20:32:48.368Z,100914.34
2022-12-12T20:35:29.516Z,100911.75
2022-12-12T20:38:09.369Z,100911.91
2022-12-12T20:40:51.452Z,100909.34
2022-12-12T20:43:34.154Z,100904.19
2022-12-12T20:46:15.926Z,100897.34
2022-12-12T20:48:58.945Z,100894.81
2022-12-12T20:51:57.031Z,100897.44
2022-12-12T20:54:38.691Z,100894.03
2022-12-12T20:57:22.017Z,100890.69
2022-12-12T21:00:03.803Z,100880.38
2022-12-12T21:02:46.459Z,100883.88
2022-12-12T21:05:28.766Z,100877.84
2022-12-12T21:08:08.905Z,100871.88
2022-12-12T21:10:50.215Z,100872.75
2022-12-12T21:13:30.036Z,100879.69
2022-12-12T21:16:10.888Z,100881.44
2022-12-12T21:18:52.005Z,100876.31
2022-12-12T21:21:34.589Z,100877.22
2022-12-12T21:24:16.157Z,100872.00
2022-12-12T21:26:57.816Z,100869.50
2022-12-12T21:29:36.617Z,100866.97
2022-12-12T21:32:16.747Z,100866.06
2022-12-12T21:34:58.093Z,100860.13
2022-12-12T21:37:40.592Z,100868.75
2022-12-12T21:40:21.023Z,100863.66
2022-12-12T21:43:02.440Z,100865.44
2022-12-12T21:45:45.698Z,100855.97
2022-12-12T21:48:26.730Z,100860.31
2022-12-12T21:51:07.322Z,100861.19
2022-12-12T21:53:48.023Z,100853.47
2022-12-12T21:56:29.387Z,100850.91
2022-12-12T21:59:10.763Z,100852.59
2022-12-12T22:01:50.661Z,100864.66
2022-12-12T22:04:31.997Z,100862.97
2022-12-12T22:07:13.540Z,100862.97
2022-12-12T22:09:57.382Z,100858.66
2022-12-12T22:12:57.100Z,100861.28
2022-12-12T22:15:38.558Z,100861.34
2022-12-12T22:18:19.848Z,100853.69
2022-12-12T22:21:04.080Z,100847.69
2022-12-12T22:23:44.242Z,100846.00
2022-12-12T22:26:24.659Z,100847.69
2022-12-12T22:29:06.764Z,100844.31
2022-12-12T22:31:47.623Z,100848.66
2022-12-12T22:34:28.212Z,100847.81
2022-12-12T22:37:08.033Z,100848.66
2022-12-12T22:39:47.955Z,100849.56
2022-12-12T22:42:31.249Z,100834.13
2022-12-12T22:45:14.604Z,100834.94
2022-12-12T22:47:58.934Z,100832.38
2022-12-12T22:50:40.081Z,100827.28
2022-12-12T22:53:21.300Z,100814.41
2022-12-12T22:56:03.531Z,100815.28
2022-12-12T22:58:55.971Z,100814.44
2022-12-12T23:01:37.279Z,100813.63
2022-12-12T23:04:17.366Z,100813.72
2022-12-12T23:06:58.542Z,100812.97
2022-12-12T23:09:38.315Z,100806.03
2022-12-12T23:12:18.152Z,100806.06
2022-12-12T23:14:57.981Z,100807.81
2022-12-12T23:17:39.523Z,100807.81
2022-12-12T23:20:20.830Z,100805.25
2022-12-12T23:23:02.388Z,100797.56
2022-12-12T23:25:43.530Z,100799.28
2022-12-12T23:28:24.962Z,100802.78
2022-12-12T23:31:09.405Z,100796.78
2022-12-12T23:33:55.732Z,100796.84
2022-12-12T23:36:38.073Z,100797.72
2022-12-12T23:39:20.669Z,100808.88
2022-12-12T23:42:03.592Z,100810.53
2022-12-12T23:44:50.956Z,100814.88
2022-12-12T23:47:30.774Z,100806.28
2022-12-12T23:50:10.872Z,100807.13
2022-12-12T23:52:51.985Z,100807.13
2022-12-12T23:55:31.786Z,100798.59
2022-12-12T23:58:13.606Z,100802.06
